sensor_id;sensor_type;location;lat;lon;timestamp;pressure;altitude;pressure_sealevel;temperature;humidity
72855;BME280;60991;51.278;22.550;2023-05-11T00:01:07;99717.09;;;11.54;42.14
72855;BME280;60991;51.278;22.550;2023-05-11T00:02:37;99717.31;;;11.52;41.91
72855;BME280;60991;51.278;22.550;2023-05-11T00:04:07;99713.78;;;11.47;42.13
72855;BME280;60991;51.278;22.550;2023-05-11T00:05:38;99720.59;;;11.42;42.38
72855;BME280;60991;51.278;22.550;2023-05-11T00:07:08;99720.81;;;11.41;42.30
72855;BME280;60991;51.278;22.550;2023-05-11T00:08:38;99714.94;;;11.39;42.04
72855;BME280;60991;51.278;22.550;2023-05-11T00:10:08;99710.06;;;11.36;42.08
72855;BME280;60991;51.278;22.550;2023-05-11T00:11:39;99713.78;;;11.35;42.14
72855;BME280;60991;51.278;22.550;2023-05-11T00:13:09;99711.59;;;11.32;42.43
72855;BME280;60991;51.278;22.550;2023-05-11T00:14:39;99711.59;;;11.32;42.44
72855;BME280;60991;51.278;22.550;2023-05-11T00:16:09;99712.88;;;11.29;42.64
72855;BME280;60991;51.278;22.550;2023-05-11T00:17:40;99712.88;;;11.29;42.63
72855;BME280;60991;51.278;22.550;2023-05-11T00:19:10;99710.69;;;11.26;42.59
72855;BME280;60991;51.278;22.550;2023-05-11T00:20:40;99714.38;;;11.25;42.58
72855;BME280;60991;51.278;22.550;2023-05-11T00:22:10;99705.03;;;11.23;42.41
72855;BME280;60991;51.278;22.550;2023-05-11T00:23:41;99716.13;;;11.20;42.48
72855;BME280;60991;51.278;22.550;2023-05-11T00:25:11;99707.91;;;11.21;42.58
72855;BME280;60991;51.278;22.550;2023-05-11T00:26:41;99711.38;;;11.22;42.77
72855;BME280;60991;51.278;22.550;2023-05-11T00:28:11;99712.41;;;11.21;42.82
72855;BME280;60991;51.278;22.550;2023-05-11T00:29:42;99710.81;;;11.20;42.51
72855;BME280;60991;51.278;22.550;2023-05-11T00:31:12;99710.00;;;11.19;42.63
72855;BME280;60991;51.278;22.550;2023-05-11T00:32:43;99713.91;;;11.17;42.59
72855;BME280;60991;51.278;22.550;2023-05-11T00:34:14;99712.31;;;11.16;42.76
72855;BME280;60991;51.278;22.550;2023-05-11T00:35:45;99717.03;;;11.14;42.88
72855;BME280;60991;51.278;22.550;2023-05-11T00:37:15;99710.94;;;11.13;42.93
72855;BME280;60991;51.278;22.550;2023-05-11T00:38:45;99710.38;;;11.11;42.67
72855;BME280;60991;51.278;22.550;2023-05-11T00:40:15;99704.69;;;11.07;42.95
72855;BME280;60991;51.278;22.550;2023-05-11T00:41:46;99699.84;;;11.04;42.95
72855;BME280;60991;51.278;22.550;2023-05-11T00:43:16;99695.56;;;11.03;42.98
72855;BME280;60991;51.278;22.550;2023-05-11T00:44:46;99691.75;;;10.99;43.03
72855;BME280;60991;51.278;22.550;2023-05-11T00:46:16;99702.03;;;10.96;43.11
72855;BME280;60991;51.278;22.550;2023-05-11T00:47:47;99700.09;;;10.91;43.14
72855;BME280;60991;51.278;22.550;2023-05-11T00:49:17;99699.28;;;10.91;43.17
72855;BME280;60991;51.278;22.550;2023-05-11T00:50:47;99703.22;;;10.88;43.09
72855;BME280;60991;51.278;22.550;2023-05-11T00:52:18;99693.03;;;10.85;43.26
72855;BME280;60991;51.278;22.550;2023-05-11T00:53:50;99701.47;;;10.82;43.28
72855;BME280;60991;51.278;22.550;2023-05-11T00:55:20;99698.59;;;10.84;43.48
72855;BME280;60991;51.278;22.550;2023-05-11T00:56:51;99702.50;;;10.81;43.43
72855;BME280;60991;51.278;22.550;2023-05-11T00:58:21;99691.88;;;10.81;43.45
72855;BME280;60991;51.278;22.550;2023-05-11T00:59:51;99694.31;;;10.83;43.59
72855;BME280;60991;51.278;22.550;2023-05-11T01:01:22;99691.31;;;10.79;43.35
72855;BME280;60991;51.278;22.550;2023-05-11T01:02:52;99698.47;;;10.79;43.37
72855;BME280;60991;51.278;22.550;2023-05-11T01:04:22;99695.72;;;10.73;43.67
72855;BME280;60991;51.278;22.550;2023-05-11T01:08:05;99694.31;;;10.71;43.32
72855;BME280;60991;51.278;22.550;2023-05-11T01:10:03;99689.81;;;10.71;43.36
72855;BME280;60991;51.278;22.550;2023-05-11T01:11:46;99692.94;;;10.68;43.61
72855;BME280;60991;51.278;22.550;2023-05-11T01:13:26;99687.63;;;10.68;43.47
72855;BME280;60991;51.278;22.550;2023-05-11T01:16:34;99689.34;;;10.63;43.64
72855;BME280;60991;51.278;22.550;2023-05-11T01:18:29;99694.88;;;10.61;43.79
72855;BME280;60991;51.278;22.550;2023-05-11T01:20:10;99691.19;;;10.62;43.68
72855;BME280;60991;51.278;22.550;2023-05-11T01:21:42;99699.97;;;10.63;43.74
72855;BME280;60991;51.278;22.550;2023-05-11T01:25:12;99700.91;;;10.57;43.54
72855;BME280;60991;51.278;22.550;2023-05-11T01:28:58;99694.41;;;10.53;44.06
72855;BME280;60991;51.278;22.550;2023-05-11T01:32:15;99687.94;;;10.49;44.39
72855;BME280;60991;51.278;22.550;2023-05-11T01:33:54;99693.25;;;10.49;44.37
72855;BME280;60991;51.278;22.550;2023-05-11T01:35:28;99697.16;;;10.46;44.21
72855;BME280;60991;51.278;22.550;2023-05-11T01:37:05;99694.16;;;10.43;44.41
72855;BME280;60991;51.278;22.550;2023-05-11T01:38:39;99690.69;;;10.42;44.25
72855;BME280;60991;51.278;22.550;2023-05-11T01:40:16;99689.56;;;10.38;44.52
72855;BME280;60991;51.278;22.550;2023-05-11T01:41:51;99688.16;;;10.35;44.65
72855;BME280;60991;51.278;22.550;2023-05-11T01:43:25;99682.88;;;10.35;44.51
72855;BME280;60991;51.278;22.550;2023-05-11T01:44:57;99688.41;;;10.34;44.49
72855;BME280;60991;51.278;22.550;2023-05-11T01:46:31;99685.16;;;10.32;44.83
72855;BME280;60991;51.278;22.550;2023-05-11T01:48:04;99685.38;;;10.30;44.72
72855;BME280;60991;51.278;22.550;2023-05-11T01:49:37;99684.81;;;10.28;44.77
72855;BME280;60991;51.278;22.550;2023-05-11T01:51:09;99688.72;;;10.26;44.63
72855;BME280;60991;51.278;22.550;2023-05-11T01:52:41;99693.22;;;10.25;44.91
72855;BME280;60991;51.278;22.550;2023-05-11T01:54:12;99693.09;;;10.20;45.01
72855;BME280;60991;51.278;22.550;2023-05-11T01:55:44;99694.13;;;10.19;44.99
72855;BME280;60991;51.278;22.550;2023-05-11T01:57:16;99695.75;;;10.20;44.82
72855;BME280;60991;51.278;22.550;2023-05-11T01:58:48;99693.34;;;10.19;45.03
72855;BME280;60991;51.278;22.550;2023-05-11T02:00:20;99693.09;;;10.20;44.69
72855;BME280;60991;51.278;22.550;2023-05-11T02:01:51;99690.69;;;10.19;45.24
72855;BME280;60991;51.278;22.550;2023-05-11T02:03:24;99686.59;;;10.16;45.24
72855;BME280;60991;51.278;22.550;2023-05-11T02:04:55;99687.63;;;10.15;45.17
72855;BME280;60991;51.278;22.550;2023-05-11T02:06:28;99678.06;;;10.14;45.10
72855;BME280;60991;51.278;22.550;2023-05-11T02:08:01;99693.16;;;10.14;45.10
72855;BME280;60991;51.278;22.550;2023-05-11T02:09:33;99682.19;;;10.10;45.45
72855;BME280;60991;51.278;22.550;2023-05-11T02:11:06;99686.25;;;10.13;45.26
72855;BME280;60991;51.278;22.550;2023-05-11T02:12:38;99683.81;;;10.11;45.07
72855;BME280;60991;51.278;22.550;2023-05-11T02:14:10;99687.28;;;10.12;45.23
72855;BME280;60991;51.278;22.550;2023-05-11T02:15:41;99684.84;;;10.10;45.05
72855;BME280;60991;51.278;22.550;2023-05-11T02:17:14;99694.88;;;10.08;45.47
72855;BME280;60991;51.278;22.550;2023-05-11T02:18:46;99690.59;;;10.07;45.03
72855;BME280;60991;51.278;22.550;2023-05-11T02:20:18;99690.81;;;10.05;45.48
72855;BME280;60991;51.278;22.550;2023-05-11T02:21:52;99685.97;;;10.02;45.45
72855;BME280;60991;51.278;22.550;2023-05-11T02:23:22;99684.69;;;10.05;45.13
72855;BME280;60991;51.278;22.550;2023-05-11T02:24:53;99684.94;;;10.03;45.35
72855;BME280;60991;51.278;22.550;2023-05-11T02:26:23;99685.75;;;10.04;45.26
72855;BME280;60991;51.278;22.550;2023-05-11T02:27:54;99684.94;;;10.03;45.18
72855;BME280;60991;51.278;22.550;2023-05-11T02:29:24;99683.09;;;10.04;45.49
72855;BME280;60991;51.278;22.550;2023-05-11T02:30:59;99691.25;;;10.02;45.67
72855;BME280;60991;51.278;22.550;2023-05-11T02:32:34;99686.22;;;10.01;45.74
72855;BME280;60991;51.278;22.550;2023-05-11T02:34:14;99692.34;;;10.01;45.77
72855;BME280;60991;51.278;22.550;2023-05-11T02:35:47;99696.25;;;9.99;45.61
72855;BME280;60991;51.278;22.550;2023-05-11T02:37:22;99691.38;;;9.96;45.65
72855;BME280;60991;51.278;22.550;2023-05-11T02:38:59;99697.13;;;9.93;45.70
72855;BME280;60991;51.278;22.550;2023-05-11T02:40:32;99697.94;;;9.93;45.66
72855;BME280;60991;51.278;22.550;2023-05-11T02:42:11;99694.13;;;9.89;45.99
72855;BME280;60991;51.278;22.550;2023-05-11T02:43:48;99695.38;;;9.87;45.74
72855;BME280;60991;51.278;22.550;2023-05-11T02:45:21;99691.91;;;9.86;45.81
72855;BME280;60991;51.278;22.550;2023-05-11T02:46:52;99693.03;;;9.79;46.51
72855;BME280;60991;51.278;22.550;2023-05-11T02:48:26;99689.81;;;9.77;46.18
72855;BME280;60991;51.278;22.550;2023-05-11T02:50:00;99691.06;;;9.74;46.12
72855;BME280;60991;51.278;22.550;2023-05-11T02:51:40;99697.63;;;9.71;46.01
72855;BME280;60991;51.278;22.550;2023-05-11T02:53:14;99694.38;;;9.69;45.94
72855;BME280;60991;51.278;22.550;2023-05-11T02:54:46;99700.72;;;9.68;46.42
72855;BME280;60991;51.278;22.550;2023-05-11T02:56:18;99694.00;;;9.66;46.48
72855;BME280;60991;51.278;22.550;2023-05-11T02:57:48;99701.41;;;9.64;46.25
72855;BME280;60991;51.278;22.550;2023-05-11T02:59:19;99701.16;;;9.65;46.67
72855;BME280;60991;51.278;22.550;2023-05-11T03:00:50;99695.03;;;9.65;46.48
72855;BME280;60991;51.278;22.550;2023-05-11T03:02:20;99690.00;;;9.63;46.40
72855;BME280;60991;51.278;22.550;2023-05-11T03:03:51;99696.09;;;9.64;46.32
72855;BME280;60991;51.278;22.550;2023-05-11T03:05:21;99704.84;;;9.64;46.71
72855;BME280;60991;51.278;22.550;2023-05-11T03:06:51;99696.66;;;9.66;46.43
72855;BME280;60991;51.278;22.550;2023-05-11T03:08:22;99705.63;;;9.65;46.66
72855;BME280;60991;51.278;22.550;2023-05-11T03:09:54;99704.06;;;9.64;46.80
72855;BME280;60991;51.278;22.550;2023-05-11T03:11:24;99702.66;;;9.61;47.00
72855;BME280;60991;51.278;22.550;2023-05-11T03:12:55;99709.44;;;9.57;46.75
72855;BME280;60991;51.278;22.550;2023-05-11T03:14:25;99702.72;;;9.55;46.81
72855;BME280;60991;51.278;22.550;2023-05-11T03:15:56;99705.00;;;9.51;47.01
72855;BME280;60991;51.278;22.550;2023-05-11T03:17:28;99706.03;;;9.50;47.15
72855;BME280;60991;51.278;22.550;2023-05-11T03:19:01;99711.34;;;9.50;47.18
72855;BME280;60991;51.278;22.550;2023-05-11T03:20:33;99707.88;;;9.50;47.34
72855;BME280;60991;51.278;22.550;2023-05-11T03:22:05;99710.75;;;9.48;46.96
72855;BME280;60991;51.278;22.550;2023-05-11T03:23:37;99709.94;;;9.48;46.79
72855;BME280;60991;51.278;22.550;2023-05-11T03:25:10;99712.38;;;9.49;47.20
72855;BME280;60991;51.278;22.550;2023-05-11T03:26:42;99711.56;;;9.49;47.00
72855;BME280;60991;51.278;22.550;2023-05-11T03:28:13;99708.09;;;9.48;47.42
72855;BME280;60991;51.278;22.550;2023-05-11T03:29:44;99712.94;;;9.51;47.24
72855;BME280;60991;51.278;22.550;2023-05-11T03:31:17;99716.19;;;9.53;47.13
72855;BME280;60991;51.278;22.550;2023-05-11T03:32:48;99714.13;;;9.55;46.96
72855;BME280;60991;51.278;22.550;2023-05-11T03:34:18;99707.81;;;9.56;46.95
72855;BME280;60991;51.278;22.550;2023-05-11T03:35:49;99709.19;;;9.59;46.89
72855;BME280;60991;51.278;22.550;2023-05-11T03:37:21;99714.28;;;9.60;47.24
72855;BME280;60991;51.278;22.550;2023-05-11T03:38:53;99712.88;;;9.58;47.00
72855;BME280;60991;51.278;22.550;2023-05-11T03:40:23;99712.06;;;9.57;47.30
72855;BME280;60991;51.278;22.550;2023-05-11T03:41:54;99715.75;;;9.56;47.23
72855;BME280;60991;51.278;22.550;2023-05-11T03:43:27;99712.13;;;9.51;47.18
72855;BME280;60991;51.278;22.550;2023-05-11T03:45:00;99709.72;;;9.49;47.22
72855;BME280;60991;51.278;22.550;2023-05-11T03:46:34;99721.72;;;9.52;47.61
72855;BME280;60991;51.278;22.550;2023-05-11T03:48:07;99718.03;;;9.53;47.39
72855;BME280;60991;51.278;22.550;2023-05-11T03:49:38;99725.19;;;9.52;47.77
72855;BME280;60991;51.278;22.550;2023-05-11T03:51:09;99718.47;;;9.50;47.77
72855;BME280;60991;51.278;22.550;2023-05-11T03:52:40;99724.38;;;9.52;47.39
72855;BME280;60991;51.278;22.550;2023-05-11T03:54:11;99720.47;;;9.54;47.72
72855;BME280;60991;51.278;22.550;2023-05-11T03:55:41;99719.44;;;9.55;47.52
72855;BME280;60991;51.278;22.550;2023-05-11T03:57:13;99725.31;;;9.57;47.68
72855;BME280;60991;51.278;22.550;2023-05-11T03:58:43;99719.81;;;9.59;47.86
72855;BME280;60991;51.278;22.550;2023-05-11T04:00:14;99723.84;;;9.61;47.68
72855;BME280;60991;51.278;22.550;2023-05-11T04:01:44;99726.94;;;9.58;47.95
72855;BME280;60991;51.278;22.550;2023-05-11T04:03:15;99722.25;;;9.60;47.98
72855;BME280;60991;51.278;22.550;2023-05-11T04:04:45;99723.94;;;9.55;48.09
72855;BME280;60991;51.278;22.550;2023-05-11T04:06:16;99731.66;;;9.56;48.08
72855;BME280;60991;51.278;22.550;2023-05-11T04:07:46;99722.09;;;9.55;48.15
72855;BME280;60991;51.278;22.550;2023-05-11T04:09:16;99728.19;;;9.56;47.79
72855;BME280;60991;51.278;22.550;2023-05-11T04:10:46;99726.94;;;9.58;48.21
72855;BME280;60991;51.278;22.550;2023-05-11T04:12:17;99729.16;;;9.61;48.36
72855;BME280;60991;51.278;22.550;2023-05-11T04:13:47;99727.31;;;9.62;47.99
72855;BME280;60991;51.278;22.550;2023-05-11T04:15:17;99724.19;;;9.65;47.94
72855;BME280;60991;51.278;22.550;2023-05-11T04:16:47;99723.31;;;9.71;47.99
72855;BME280;60991;51.278;22.550;2023-05-11T04:18:17;99723.91;;;9.73;47.92
72855;BME280;60991;51.278;22.550;2023-05-11T04:19:48;99724.88;;;9.79;47.87
72855;BME280;60991;51.278;22.550;2023-05-11T04:21:18;99725.44;;;9.81;47.71
72855;BME280;60991;51.278;22.550;2023-05-11T04:22:48;99717.50;;;9.81;47.59
72855;BME280;60991;51.278;22.550;2023-05-11T04:24:18;99722.56;;;9.82;47.65
72855;BME280;60991;51.278;22.550;2023-05-11T04:25:55;99723.94;;;9.85;47.94
72855;BME280;60991;51.278;22.550;2023-05-11T04:27:25;99725.13;;;9.89;47.67
72855;BME280;60991;51.278;22.550;2023-05-11T04:28:55;99721.44;;;9.90;48.02
72855;BME280;60991;51.278;22.550;2023-05-11T04:30:25;99734.84;;;9.95;48.01
72855;BME280;60991;51.278;22.550;2023-05-11T04:31:56;99728.34;;;9.91;47.76
72855;BME280;60991;51.278;22.550;2023-05-11T04:33:26;99728.72;;;9.94;47.71
72855;BME280;60991;51.278;22.550;2023-05-11T04:34:56;99732.34;;;10.00;47.55
72855;BME280;60991;51.278;22.550;2023-05-11T04:36:26;99731.41;;;10.06;47.92
72855;BME280;60991;51.278;22.550;2023-05-11T04:37:56;99733.41;;;10.11;47.68
72855;BME280;60991;51.278;22.550;2023-05-11T04:39:27;99731.09;;;10.14;47.97
72855;BME280;60991;51.278;22.550;2023-05-11T04:41:01;99741.88;;;10.19;47.80
72855;BME280;60991;51.278;22.550;2023-05-11T04:42:32;99746.50;;;10.24;47.75
72855;BME280;60991;51.278;22.550;2023-05-11T04:44:02;99741.56;;;10.27;47.62
72855;BME280;60991;51.278;22.550;2023-05-11T04:45:32;99740.28;;;10.30;47.71
72855;BME280;60991;51.278;22.550;2023-05-11T04:47:02;99733.38;;;10.29;47.55
72855;BME280;60991;51.278;22.550;2023-05-11T04:48:32;99739.63;;;10.34;47.50
72855;BME280;60991;51.278;22.550;2023-05-11T04:50:03;99745.28;;;10.38;47.58
72855;BME280;60991;51.278;22.550;2023-05-11T04:51:33;99745.75;;;10.35;47.67
72855;BME280;60991;51.278;22.550;2023-05-11T04:53:03;99744.25;;;10.39;47.33
72855;BME280;60991;51.278;22.550;2023-05-11T04:54:33;99747.59;;;10.46;47.22
72855;BME280;60991;51.278;22.550;2023-05-11T04:56:04;99747.16;;;10.49;47.08
72855;BME280;60991;51.278;22.550;2023-05-11T04:57:34;99747.28;;;10.54;47.00
72855;BME280;60991;51.278;22.550;2023-05-11T04:59:05;99746.25;;;10.55;47.20
72855;BME280;60991;51.278;22.550;2023-05-11T05:00:35;99749.22;;;10.59;47.01
72855;BME280;60991;51.278;22.550;2023-05-11T05:02:05;99741.41;;;10.64;46.80
72855;BME280;60991;51.278;22.550;2023-05-11T05:03:35;99741.75;;;10.67;46.72
72855;BME280;60991;51.278;22.550;2023-05-11T05:05:06;99748.00;;;10.73;46.69
72855;BME280;60991;51.278;22.550;2023-05-11T05:06:36;99743.59;;;10.79;46.90
72855;BME280;60991;51.278;22.550;2023-05-11T05:08:07;99742.56;;;10.80;46.67
72855;BME280;60991;51.278;22.550;2023-05-11T05:09:37;99741.31;;;10.82;46.86
72855;BME280;60991;51.278;22.550;2023-05-11T05:11:07;99742.47;;;10.86;46.69
72855;BME280;60991;51.278;22.550;2023-05-11T05:12:38;99741.44;;;10.87;46.74
72855;BME280;60991;51.278;22.550;2023-05-11T05:14:08;99739.13;;;10.91;46.47
72855;BME280;60991;51.278;22.550;2023-05-11T05:15:38;99745.56;;;10.95;46.68
72855;BME280;60991;51.278;22.550;2023-05-11T05:17:08;99744.78;;;10.94;46.76
72855;BME280;60991;51.278;22.550;2023-05-11T05:18:38;99753.31;;;10.96;46.87
72855;BME280;60991;51.278;22.550;2023-05-11T05:20:09;99748.59;;;10.98;46.76
72855;BME280;60991;51.278;22.550;2023-05-11T05:21:39;99748.94;;;11.02;46.93
72855;BME280;60991;51.278;22.550;2023-05-11T05:23:09;99757.84;;;11.07;47.26
72855;BME280;60991;51.278;22.550;2023-05-11T05:24:40;99750.81;;;11.13;46.83
72855;BME280;60991;51.278;22.550;2023-05-11T05:26:10;99761.97;;;11.15;46.58
72855;BME280;60991;51.278;22.550;2023-05-11T05:27:40;99759.66;;;11.19;46.67
72855;BME280;60991;51.278;22.550;2023-05-11T05:29:10;99757.72;;;11.26;46.52
72855;BME280;60991;51.278;22.550;2023-05-11T05:30:40;99756.53;;;11.33;46.22
72855;BME280;60991;51.278;22.550;2023-05-11T05:32:11;99760.69;;;11.41;45.96
72855;BME280;60991;51.278;22.550;2023-05-11T05:33:41;99763.94;;;11.43;46.01
72855;BME280;60991;51.278;22.550;2023-05-11T05:35:11;99760.34;;;11.49;46.18
72855;BME280;60991;51.278;22.550;2023-05-11T05:36:41;99765.97;;;11.53;45.90
72855;BME280;60991;51.278;22.550;2023-05-11T05:38:11;99763.22;;;11.59;45.73
72855;BME280;60991;51.278;22.550;2023-05-11T05:39:42;99765.97;;;11.64;45.93
72855;BME280;60991;51.278;22.550;2023-05-11T05:41:12;99766.06;;;11.69;45.91
72855;BME280;60991;51.278;22.550;2023-05-11T05:42:42;99767.59;;;11.77;45.02
72855;BME280;60991;51.278;22.550;2023-05-11T05:44:12;99769.53;;;11.82;45.00
72855;BME280;60991;51.278;22.550;2023-05-11T05:45:42;99774.63;;;11.83;44.58
72855;BME280;60991;51.278;22.550;2023-05-11T05:47:13;99769.31;;;11.83;44.30
72855;BME280;60991;51.278;22.550;2023-05-11T05:48:43;99776.16;;;11.79;44.53
72855;BME280;60991;51.278;22.550;2023-05-11T05:50:13;99765.97;;;11.76;44.48
72855;BME280;60991;51.278;22.550;2023-05-11T05:51:43;99768.75;;;11.81;44.27
72855;BME280;60991;51.278;22.550;2023-05-11T05:53:14;99774.41;;;11.85;44.54
72855;BME280;60991;51.278;22.550;2023-05-11T05:54:44;99773.91;;;11.88;44.50
72855;BME280;60991;51.278;22.550;2023-05-11T05:56:14;99767.47;;;11.84;44.66
72855;BME280;60991;51.278;22.550;2023-05-11T05:57:44;99770.53;;;11.92;44.37
72855;BME280;60991;51.278;22.550;2023-05-11T05:59:14;99772.97;;;11.94;44.34
72855;BME280;60991;51.278;22.550;2023-05-11T06:00:45;99766.13;;;11.98;44.70
72855;BME280;60991;51.278;22.550;2023-05-11T06:02:15;99774.53;;;12.06;44.72
72855;BME280;60991;51.278;22.550;2023-05-11T06:03:45;99775.69;;;12.10;44.59
72855;BME280;60991;51.278;22.550;2023-05-11T06:05:15;99767.47;;;12.12;44.62
72855;BME280;60991;51.278;22.550;2023-05-11T06:06:46;99768.03;;;12.14;44.68
72855;BME280;60991;51.278;22.550;2023-05-11T06:08:16;99775.91;;;12.09;44.56
72855;BME280;60991;51.278;22.550;2023-05-11T06:09:46;99772.31;;;12.15;44.57
72855;BME280;60991;51.278;22.550;2023-05-11T06:11:17;99773.22;;;12.21;44.58
72855;BME280;60991;51.278;22.550;2023-05-11T06:12:47;99766.22;;;12.31;44.53
72855;BME280;60991;51.278;22.550;2023-05-11T06:14:17;99767.13;;;12.37;43.74
72855;BME280;60991;51.278;22.550;2023-05-11T06:15:47;99776.56;;;12.44;44.16
72855;BME280;60991;51.278;22.550;2023-05-11T06:17:17;99767.88;;;12.49;44.07
72855;BME280;60991;51.278;22.550;2023-05-11T06:18:48;99764.88;;;12.45;44.07
72855;BME280;60991;51.278;22.550;2023-05-11T06:20:18;99771.44;;;12.55;44.45
72855;BME280;60991;51.278;22.550;2023-05-11T06:21:48;99772.16;;;12.50;44.54
72855;BME280;60991;51.278;22.550;2023-05-11T06:23:18;99767.25;;;12.59;44.28
72855;BME280;60991;51.278;22.550;2023-05-11T06:24:48;99774.50;;;12.63;44.44
72855;BME280;60991;51.278;22.550;2023-05-11T06:26:19;99775.38;;;12.69;44.62
72855;BME280;60991;51.278;22.550;2023-05-11T06:27:49;99774.91;;;12.72;44.43
72855;BME280;60991;51.278;22.550;2023-05-11T06:29:19;99775.47;;;12.74;45.34
72855;BME280;60991;51.278;22.550;2023-05-11T06:30:49;99776.38;;;12.79;45.57
72855;BME280;60991;51.278;22.550;2023-05-11T06:32:20;99768.91;;;12.81;45.66
72855;BME280;60991;51.278;22.550;2023-05-11T06:33:50;99777.81;;;12.87;45.18
72855;BME280;60991;51.278;22.550;2023-05-11T06:35:20;99780.56;;;12.92;44.87
72855;BME280;60991;51.278;22.550;2023-05-11T06:36:50;99782.50;;;12.97;45.23
72855;BME280;60991;51.278;22.550;2023-05-11T06:38:20;99772.91;;;12.96;45.05
72855;BME280;60991;51.278;22.550;2023-05-11T06:39:51;99777.41;;;12.95;45.32
72855;BME280;60991;51.278;22.550;2023-05-11T06:41:21;99772.16;;;13.00;45.50
72855;BME280;60991;51.278;22.550;2023-05-11T06:42:51;99776.03;;;13.09;45.57
72855;BME280;60991;51.278;22.550;2023-05-11T06:44:21;99780.19;;;13.17;45.78
72855;BME280;60991;51.278;22.550;2023-05-11T06:45:51;99778.78;;;13.14;45.67
72855;BME280;60991;51.278;22.550;2023-05-11T06:47:21;99773.25;;;13.16;45.45
72855;BME280;60991;51.278;22.550;2023-05-11T06:48:52;99774.09;;;13.22;45.53
72855;BME280;60991;51.278;22.550;2023-05-11T06:50:22;99766.66;;;13.24;45.19
72855;BME280;60991;51.278;22.550;2023-05-11T06:51:52;99772.81;;;13.24;45.65
72855;BME280;60991;51.278;22.550;2023-05-11T06:53:22;99771.84;;;13.30;45.39
72855;BME280;60991;51.278;22.550;2023-05-11T06:54:52;99777.25;;;13.35;45.49
72855;BME280;60991;51.278;22.550;2023-05-11T06:56:23;99775.13;;;13.37;44.84
72855;BME280;60991;51.278;22.550;2023-05-11T06:57:53;99774.06;;;13.38;45.11
72855;BME280;60991;51.278;22.550;2023-05-11T06:59:23;99775.44;;;13.41;44.41
72855;BME280;60991;51.278;22.550;2023-05-11T07:00:53;99770.66;;;13.43;44.94
72855;BME280;60991;51.278;22.550;2023-05-11T07:02:23;99771.06;;;13.51;44.28
72855;BME280;60991;51.278;22.550;2023-05-11T07:03:54;99777.19;;;13.52;44.53
72855;BME280;60991;51.278;22.550;2023-05-11T07:05:24;99780.16;;;13.56;44.32
72855;BME280;60991;51.278;22.550;2023-05-11T07:06:54;99773.59;;;13.63;44.73
72855;BME280;60991;51.278;22.550;2023-05-11T07:08:24;99778.69;;;13.65;44.52
72855;BME280;60991;51.278;22.550;2023-05-11T07:09:55;99779.81;;;13.69;44.96
72855;BME280;60991;51.278;22.550;2023-05-11T07:11:25;99776.66;;;13.72;44.44
72855;BME280;60991;51.278;22.550;2023-05-11T07:12:55;99774.53;;;13.74;44.23
72855;BME280;60991;51.278;22.550;2023-05-11T07:14:25;99770.06;;;13.79;44.82
72855;BME280;60991;51.278;22.550;2023-05-11T07:15:55;99778.69;;;13.86;45.07
72855;BME280;60991;51.278;22.550;2023-05-11T07:17:26;99779.25;;;13.89;44.95
72855;BME280;60991;51.278;22.550;2023-05-11T07:18:56;99780.63;;;13.91;45.24
72855;BME280;60991;51.278;22.550;2023-05-11T07:20:26;99780.66;;;13.96;44.74
72855;BME280;60991;51.278;22.550;2023-05-11T07:21:56;99772.97;;;14.00;44.82
72855;BME280;60991;51.278;22.550;2023-05-11T07:23:26;99775.16;;;14.03;44.90
72855;BME280;60991;51.278;22.550;2023-05-11T07:24:57;99779.19;;;14.05;44.36
72855;BME280;60991;51.278;22.550;2023-05-11T07:26:29;99767.47;;;14.11;43.65
72855;BME280;60991;51.278;22.550;2023-05-11T07:27:59;99776.59;;;14.15;43.68
72855;BME280;60991;51.278;22.550;2023-05-11T07:29:29;99781.94;;;14.15;44.38
72855;BME280;60991;51.278;22.550;2023-05-11T07:30:59;99783.06;;;14.19;44.05
72855;BME280;60991;51.278;22.550;2023-05-11T07:32:29;99781.81;;;14.27;44.00
72855;BME280;60991;51.278;22.550;2023-05-11T07:33:59;99781.28;;;14.30;43.97
72855;BME280;60991;51.278;22.550;2023-05-11T07:35:30;99785.88;;;14.35;43.47
72855;BME280;60991;51.278;22.550;2023-05-11T07:37:00;99773.09;;;14.37;44.04
72855;BME280;60991;51.278;22.550;2023-05-11T07:38:30;99772.94;;;14.48;43.66
72855;BME280;60991;51.278;22.550;2023-05-11T07:40:00;99770.88;;;14.55;43.73
72855;BME280;60991;51.278;22.550;2023-05-11T07:41:30;99771.44;;;14.58;43.63
72855;BME280;60991;51.278;22.550;2023-05-11T07:43:01;99771.75;;;14.61;43.13
72855;BME280;60991;51.278;22.550;2023-05-11T07:44:31;99770.19;;;14.65;42.72
72855;BME280;60991;51.278;22.550;2023-05-11T07:46:01;99774.19;;;14.68;42.52
72855;BME280;60991;51.278;22.550;2023-05-11T07:47:31;99773.94;;;14.69;42.79
72855;BME280;60991;51.278;22.550;2023-05-11T07:49:01;99772.31;;;14.68;41.83
72855;BME280;60991;51.278;22.550;2023-05-11T07:50:32;99771.53;;;14.68;41.16
72855;BME280;60991;51.278;22.550;2023-05-11T07:52:02;99776.59;;;14.69;41.05
72855;BME280;60991;51.278;22.550;2023-05-11T07:53:33;99768.94;;;14.78;41.12
72855;BME280;60991;51.278;22.550;2023-05-11T07:55:03;99772.50;;;14.88;41.17
72855;BME280;60991;51.278;22.550;2023-05-11T07:56:34;99777.06;;;14.93;41.34
72855;BME280;60991;51.278;22.550;2023-05-11T07:58:04;99774.44;;;14.98;41.00
72855;BME280;60991;51.278;22.550;2023-05-11T07:59:34;99778.47;;;15.01;40.85
72855;BME280;60991;51.278;22.550;2023-05-11T08:01:04;99772.34;;;15.05;40.28
72855;BME280;60991;51.278;22.550;2023-05-11T08:02:35;99773.44;;;15.09;40.13
72855;BME280;60991;51.278;22.550;2023-05-11T08:04:05;99786.84;;;15.14;40.18
72855;BME280;60991;51.278;22.550;2023-05-11T08:05:35;99770.81;;;15.14;40.22
72855;BME280;60991;51.278;22.550;2023-05-11T08:07:06;99773.53;;;15.19;39.78
72855;BME280;60991;51.278;22.550;2023-05-11T08:08:36;99767.63;;;15.22;38.70